الصفحة الرئيسية
METAR-TAF:

METAR-TAF

مطار :

مطار قويلين يانغ جيانغ الدولي

Guilin, جمهورية الصين الشعبية

دائرة عرض: 25-20N, خط طول: 110-18E, ارتفاع: 166 متر

مراقبة الطقس الحالي

تاريخ ووقت الإصدار 26 دقيقة قبل الساعة 23:00UTC
ريح 2 عقدةمن اتجاهات متغيرة
درجة الحرارة 16°درجة مئوية
الرطوبة 100%
ضغط 1019 hPa
الرؤية: 3500 متر
غيوم قليلة على ارتفاع 700 قدم
غيوم متفرقة على ارتفاع 1800 قدم
ملبد بالغيوم على ارتفاع 3300 قدم
مطر خفيف, غشاء

METAR: ZGKL 202300Z VRB01MPS 3500 -RA BR FEW007 SCT018 OVC033 16/16 Q1019 NOSIG

زمن: 07:26 (23:26 UTC)

توقعات

تاريخ ووقت الإصدار 8ساعات و 14 دقيقة قبل الساعة 15:12UTC
التوقعات صالحة من20 الساعة 18 UTC إلى 21 الساعة 18 UTC
ريح 4 عقدة من الشمال الشرقي
الرؤية: 3000 متر
غيوم قليلة على ارتفاع 800 قدم
غيوم متفرقة على ارتفاع 2000 قدم
ملبد بالغيوم على ارتفاع 4000 قدم
مطر خفيف, غشاء
مؤقت
من 20 الساعة 18 UTC إلى 20 الساعة 24 UTC
الرؤية: 1600 متر
مطر, غشاء

TAF: ZGKL 201512Z 2018/2118 05002MPS 3000 -RA BR FEW008 SCT020 OVC040 TX20/2107Z TN16/2022Z TEMPO 2018/2024 1600 RA BR

أرصاد الطقس والتوقعات من أكثر من 4000 مطار (تقارير الطقس للمطار METAR والتنبؤ بالطقس بالمطارTAF).

المحطات المتاحة هي النقط الصفراء والحمراء على الخريطة.

حرك المؤشر فوق النقطة لمعرفة اسم المحطة.

ثم انقر لمعرفة أرصاد وتوقعات الطقس.

لتغيير الخارطة: اضغط على الأزرار الخضراء مع رمز الصليب الأسود للتكبير. على الزر الأخضر مع شرطة للتصغير، أو على الأسهم الخضراء للخرائط المجاورة.


METAR-TAF: